Time;durP1;ratioP1;P1;durP2;ratioP2;P2;SDS_P1;SDS_P2;PMS_P1;PMS_P2;Temp;Humidity;BMP_temperature;BMP_pressure;BME280_temperature;BME280_humidity;BME280_pressure;Samples;Min_cycle;Max_cycle;Signal;HPM_P1;HPM_P2
2023/06/30 00:01:28;;;;;;;9.73;3.10;;;40.80;19.10;;;;;;5005265;28;20029;-60
2023/06/30 00:03:55;;;;;;;14.18;2.78;;;40.80;19.10;;;;;;5007789;28;20072;-62
2023/06/30 00:06:23;;;;;;;9.98;2.70;;;40.70;18.70;;;;;;5006865;28;20651;-59
2023/06/30 00:08:49;;;;;;;11.02;4.22;;;40.70;19.40;;;;;;5004764;28;20497;-61
2023/06/30 00:11:17;;;;;;;15.60;3.60;;;40.70;19.40;;;;;;5006484;28;20490;-58
2023/06/30 00:13:44;;;;;;;12.57;2.95;;;40.60;18.70;;;;;;5006162;28;20080;-62
2023/06/30 00:16:10;;;;;;;6.97;3.25;;;40.50;19.10;;;;;;5005986;28;20029;-61
2023/06/30 00:18:37;;;;;;;16.42;3.25;;;40.50;18.90;;;;;;5005932;28;20462;-62
2023/06/30 00:21:03;;;;;;;13.15;3.10;;;40.50;18.60;;;;;;5006850;28;20549;-60
2023/06/30 00:23:29;;;;;;;10.73;2.92;;;40.40;19.00;;;;;;5005710;28;20022;-63
2023/06/30 00:25:56;;;;;;;19.50;3.20;;;40.40;19.30;;;;;;5006492;28;20022;-59
2023/06/30 00:28:22;;;;;;;11.93;3.25;;;40.40;19.40;;;;;;5005862;28;20099;-60
2023/06/30 00:30:49;;;;;;;16.15;3.00;;;40.40;18.90;;;;;;5005387;28;20072;-63
2023/06/30 00:33:15;;;;;;;15.75;3.65;;;40.20;18.50;;;;;;5005922;28;20071;-61
2023/06/30 00:35:41;;;;;;;18.55;3.78;;;40.10;19.10;;;;;;4999267;28;20382;-62
2023/06/30 00:38:08;;;;;;;22.98;3.70;;;40.10;18.40;;;;;;5005505;28;20022;-60
2023/06/30 00:40:34;;;;;;;20.60;3.80;;;40.00;19.10;;;;;;5005961;28;20060;-61
2023/06/30 00:43:01;;;;;;;17.92;3.78;;;40.00;19.60;;;;;;5005229;28;20023;-59
2023/06/30 00:45:27;;;;;;;14.57;3.70;;;39.90;19.30;;;;;;5005124;28;20553;-60
2023/06/30 00:47:54;;;;;;;8.40;2.60;;;39.90;19.40;;;;;;5006233;28;20097;-62
2023/06/30 00:50:21;;;;;;;9.40;2.95;;;39.80;19.70;;;;;;5006355;28;20915;-62
2023/06/30 00:52:50;;;;;;;12.95;2.70;;;39.80;19.60;;;;;;4998234;28;20032;-61
2023/06/30 00:55:17;;;;;;;8.85;3.03;;;39.80;19.70;;;;;;5006186;28;20018;-61
2023/06/30 00:57:43;;;;;;;7.38;2.28;;;39.70;20.00;;;;;;5005047;28;20475;-60
2023/06/30 01:00:11;;;;;;;9.05;2.60;;;39.70;20.10;;;;;;5005339;28;20032;-61
2023/06/30 01:02:51;;;;;;;13.50;2.78;;;39.60;20.50;;;;;;5004168;28;20018;-60
2023/06/30 01:05:43;;;;;;;15.98;2.90;;;39.50;20.30;;;;;;5007698;28;20508;-59
2023/06/30 01:08:32;;;;;;;8.27;2.75;;;39.40;20.00;;;;;;5003300;28;20014;-61
2023/06/30 01:10:59;;;;;;;21.40;5.95;;;39.40;20.00;;;;;;5002479;28;20018;-60
2023/06/30 01:13:25;;;;;;;10.18;3.00;;;39.30;20.40;;;;;;5005015;28;20042;-60
2023/06/30 01:15:54;;;;;;;29.55;26.48;;;39.20;20.80;;;;;;5005208;28;21121;-60
2023/06/30 01:18:21;;;;;;;14.43;3.38;;;39.20;21.10;;;;;;5005036;28;20570;-59
2023/06/30 01:20:49;;;;;;;11.82;2.75;;;39.20;20.30;;;;;;5005054;28;20132;-60
2023/06/30 01:23:34;;;;;;;11.65;2.70;;;39.10;20.50;;;;;;5005246;28;20048;-61
2023/06/30 01:26:02;;;;;;;8.23;2.47;;;39.00;20.60;;;;;;5004585;28;20043;-60
2023/06/30 01:28:33;;;;;;;20.35;5.45;;;39.00;20.20;;;;;;5005100;28;20089;-61
2023/06/30 01:31:00;;;;;;;6.90;3.28;;;38.90;20.20;;;;;;5005274;28;20512;-62
2023/06/30 01:33:28;;;;;;;12.27;3.70;;;38.90;20.60;;;;;;5005057;28;20018;-59
2023/06/30 01:35:54;;;;;;;8.80;2.70;;;38.80;20.20;;;;;;5004400;28;20335;-61
2023/06/30 01:38:20;;;;;;;9.40;2.60;;;38.70;20.90;;;;;;5005483;28;20049;-62
2023/06/30 01:40:47;;;;;;;5.45;2.45;;;38.60;20.50;;;;;;5005096;28;20075;-61
2023/06/30 01:43:14;;;;;;;7.40;2.60;;;38.60;19.90;;;;;;5004802;28;20038;-62
2023/06/30 01:45:41;;;;;;;7.75;3.17;;;38.50;20.50;;;;;;5005102;28;20007;-63
2023/06/30 01:48:08;;;;;;;14.75;2.90;;;38.60;20.70;;;;;;5006854;28;20025;-62
2023/06/30 01:50:35;;;;;;;10.60;2.40;;;38.60;20.00;;;;;;5005609;28;20050;-61
2023/06/30 01:53:01;;;;;;;8.63;3.00;;;38.50;20.50;;;;;;5004772;28;20058;-61
2023/06/30 01:55:28;;;;;;;7.28;2.90;;;38.40;19.90;;;;;;5005912;28;20049;-62
2023/06/30 01:57:55;;;;;;;11.57;2.70;;;38.30;20.40;;;;;;5001019;28;20047;-60
2023/06/30 02:00:21;;;;;;;10.82;3.20;;;38.30;20.80;;;;;;5004155;28;20048;-59
2023/06/30 02:02:47;;;;;;;11.23;2.85;;;38.10;22.70;;;;;;5008309;28;20138;-60
2023/06/30 02:05:14;;;;;;;13.90;2.92;;;38.00;22.00;;;;;;5004140;28;20048;-62
2023/06/30 02:07:41;;;;;;;10.23;2.95;;;37.90;22.90;;;;;;5005738;28;20054;-64
2023/06/30 02:10:08;;;;;;;8.75;2.90;;;37.80;22.50;;;;;;5006747;28;20060;-61
2023/06/30 02:12:35;;;;;;;9.02;2.72;;;37.70;23.10;;;;;;5005113;28;20073;-61
2023/06/30 02:15:02;;;;;;;9.63;2.63;;;37.70;21.60;;;;;;5009381;28;20171;-61
2023/06/30 02:17:32;;;;;;;13.50;3.53;;;37.60;21.80;;;;;;5010014;28;20077;-60
2023/06/30 02:20:06;;;;;;;14.38;3.33;;;37.50;22.60;;;;;;5009654;28;20124;-60
2023/06/30 02:22:33;;;;;;;14.57;3.47;;;37.40;21.80;;;;;;5008451;28;20102;-61
2023/06/30 02:25:00;;;;;;;8.27;2.80;;;37.30;22.80;;;;;;5009297;28;20050;-60
2023/06/30 02:27:29;;;;;;;11.13;3.60;;;37.30;22.70;;;;;;5010547;28;20064;-59
2023/06/30 02:29:56;;;;;;;10.13;3.00;;;37.10;22.20;;;;;;5008343;28;20370;-60
2023/06/30 02:32:23;;;;;;;10.00;3.05;;;37.10;22.00;;;;;;5007226;28;20149;-62
2023/06/30 02:34:49;;;;;;;23.58;17.27;;;37.00;23.00;;;;;;5008339;28;20072;-60
2023/06/30 02:37:15;;;;;;;26.02;15.40;;;36.90;22.40;;;;;;5008478;28;20109;-59
2023/06/30 02:39:42;;;;;;;27.60;16.60;;;36.80;22.80;;;;;;5008496;28;20561;-61
2023/06/30 02:42:08;;;;;;;12.02;5.80;;;36.80;23.30;;;;;;5007806;28;20133;-57
2023/06/30 02:44:35;;;;;;;14.48;6.90;;;36.70;23.10;;;;;;5008394;28;20054;-59
2023/06/30 02:47:01;;;;;;;33.80;18.67;;;36.50;22.60;;;;;;5007062;28;20142;-58
2023/06/30 02:49:27;;;;;;;31.13;18.08;;;36.50;23.00;;;;;;5010816;28;20051;-61
2023/06/30 02:51:54;;;;;;;14.65;4.63;;;36.40;22.90;;;;;;5003616;28;20546;-60
2023/06/30 02:54:20;;;;;;;12.98;5.05;;;36.30;22.60;;;;;;5012001;28;20054;-58
2023/06/30 02:56:47;;;;;;;14.77;3.55;;;36.20;22.90;;;;;;5008528;28;20415;-59
2023/06/30 02:59:13;;;;;;;17.73;3.30;;;36.10;23.00;;;;;;5004749;28;20063;-59
2023/06/30 03:01:41;;;;;;;28.05;4.35;;;36.00;23.30;;;;;;5008378;28;20107;-60
2023/06/30 03:04:07;;;;;;;23.20;4.10;;;35.90;23.90;;;;;;5007399;28;20060;-59
2023/06/30 03:06:34;;;;;;;19.58;4.00;;;35.90;24.00;;;;;;5006236;28;20059;-60
2023/06/30 03:09:00;;;;;;;21.73;4.20;;;35.70;23.70;;;;;;5007397;28;20057;-56
2023/06/30 03:11:26;;;;;;;18.05;4.13;;;35.70;24.30;;;;;;5007017;28;20063;-61
2023/06/30 03:13:53;;;;;;;35.70;4.78;;;35.60;24.10;;;;;;5006212;28;20064;-65
2023/06/30 03:16:19;;;;;;;25.00;4.40;;;35.50;25.10;;;;;;5008333;28;20068;-63
2023/06/30 03:18:46;;;;;;;16.05;4.97;;;35.40;25.00;;;;;;5006829;28;20109;-65
2023/06/30 03:21:12;;;;;;;18.80;4.53;;;35.30;25.10;;;;;;5006227;28;20137;-63
2023/06/30 03:23:40;;;;;;;26.13;4.88;;;35.20;25.60;;;;;;5007733;28;20151;-62
2023/06/30 03:26:06;;;;;;;23.40;5.00;;;35.20;25.50;;;;;;5003540;28;20055;-63
2023/06/30 03:28:33;;;;;;;16.80;4.68;;;35.00;26.00;;;;;;5008562;28;20054;-65
2023/06/30 03:30:59;;;;;;;32.38;5.18;;;35.00;26.00;;;;;;5007183;28;20059;-63
2023/06/30 03:33:25;;;;;;;16.25;4.55;;;34.80;25.80;;;;;;5007513;28;20468;-63
2023/06/30 03:35:52;;;;;;;19.85;4.78;;;34.80;25.90;;;;;;5006109;28;20566;-64
2023/06/30 03:38:18;;;;;;;20.23;4.57;;;34.70;25.90;;;;;;5006615;28;20118;-63
2023/06/30 03:40:45;;;;;;;36.85;6.20;;;34.60;26.20;;;;;;5007865;28;21107;-64
2023/06/30 03:43:11;;;;;;;38.75;6.63;;;34.60;26.70;;;;;;5006450;28;20154;-63
2023/06/30 03:45:38;;;;;;;38.63;5.93;;;34.50;26.60;;;;;;5007197;28;20055;-64
2023/06/30 03:48:04;;;;;;;33.53;6.38;;;34.40;26.70;;;;;;5007126;28;20058;-63
2023/06/30 03:50:31;;;;;;;48.03;6.82;;;34.30;27.00;;;;;;5007653;28;20550;-66
2023/06/30 03:52:57;;;;;;;38.20;6.10;;;34.20;27.10;;;;;;5005340;28;20545;-65
2023/06/30 03:55:24;;;;;;;27.00;5.13;;;34.20;27.30;;;;;;5007200;28;20073;-66
2023/06/30 03:57:50;;;;;;;42.10;5.90;;;34.10;27.00;;;;;;5002732;28;20064;-66
2023/06/30 04:00:17;;;;;;;36.75;5.82;;;34.10;27.20;;;;;;5003685;28;20071;-66
2023/06/30 04:02:43;;;;;;;38.50;7.07;;;33.90;27.50;;;;;;5004594;28;20467;-65
2023/06/30 04:05:10;;;;;;;35.70;6.75;;;33.90;27.50;;;;;;5006130;28;20088;-64
2023/06/30 04:07:37;;;;;;;45.28;8.52;;;33.80;27.10;;;;;;5006949;28;21966;-61
2023/06/30 04:10:04;;;;;;;39.45;10.45;;;33.70;27.20;;;;;;5006530;28;20075;-63
2023/06/30 04:12:30;;;;;;;55.13;14.77;;;33.70;27.20;;;;;;5003285;28;20067;-61
2023/06/30 04:14:57;;;;;;;47.20;13.07;;;33.70;26.60;;;;;;5005883;28;20063;-63
2023/06/30 04:17:23;;;;;;;58.40;12.23;;;33.60;25.30;;;;;;5006075;28;20065;-62
2023/06/30 04:19:50;;;;;;;54.70;11.73;;;33.60;25.10;;;;;;5005217;28;20114;-61
2023/06/30 04:22:16;;;;;;;53.75;11.70;;;33.50;24.90;;;;;;5005452;28;20121;-62
2023/06/30 04:24:43;;;;;;;52.42;12.30;;;33.50;24.60;;;;;;5006383;28;21936;-64
2023/06/30 04:27:09;;;;;;;62.58;12.73;;;33.40;24.60;;;;;;5004670;28;20098;-62
2023/06/30 04:29:35;;;;;;;53.50;10.70;;;33.40;24.70;;;;;;5006258;28;20069;-62
2023/06/30 04:32:03;;;;;;;52.97;11.68;;;33.40;24.50;;;;;;5005638;28;20071;-63
2023/06/30 04:34:29;;;;;;;56.45;12.65;;;33.30;25.10;;;;;;5006280;28;20103;-62
2023/06/30 04:36:55;;;;;;;70.25;12.40;;;33.20;26.00;;;;;;5003366;28;20150;-61
2023/06/30 04:39:22;;;;;;;55.95;11.07;;;33.20;25.30;;;;;;5004831;28;20076;-62
2023/06/30 04:41:48;;;;;;;41.40;10.95;;;33.10;25.10;;;;;;5004700;28;20537;-61
2023/06/30 04:44:15;;;;;;;39.53;10.23;;;33.00;25.60;;;;;;5005100;28;20173;-62
2023/06/30 04:46:41;;;;;;;51.50;11.50;;;33.00;25.60;;;;;;5004691;28;20066;-63
2023/06/30 04:49:07;;;;;;;52.55;12.35;;;32.90;25.20;;;;;;5006168;28;20112;-62
2023/06/30 04:51:35;;;;;;;67.05;13.60;;;32.90;25.20;;;;;;5006567;28;20063;-61
2023/06/30 04:54:01;;;;;;;46.25;13.00;;;32.80;25.80;;;;;;5004852;28;20083;-59
2023/06/30 04:56:28;;;;;;;59.63;13.95;;;32.80;26.00;;;;;;5005341;28;20155;-60
2023/06/30 04:58:54;;;;;;;57.58;12.93;;;32.70;25.90;;;;;;5004216;28;20066;-59
2023/06/30 05:01:20;;;;;;;93.80;33.95;;;32.70;26.40;;;;;;5004311;28;20084;-62
2023/06/30 05:03:47;;;;;;;105.07;29.50;;;32.60;26.20;;;;;;5002518;28;20064;-59
2023/06/30 05:06:14;;;;;;;66.70;16.73;;;32.60;26.50;;;;;;5004861;28;20112;-60
2023/06/30 05:08:40;;;;;;;73.32;20.60;;;32.50;26.40;;;;;;5002132;28;20073;-61
2023/06/30 05:11:07;;;;;;;62.42;16.02;;;32.50;27.80;;;;;;5003758;28;20125;-62
2023/06/30 05:13:33;;;;;;;72.70;14.30;;;32.40;27.10;;;;;;5005538;28;20090;-60
2023/06/30 05:15:59;;;;;;;70.13;13.23;;;32.30;26.90;;;;;;5003714;28;20137;-61
2023/06/30 05:18:26;;;;;;;60.60;11.80;;;32.30;26.60;;;;;;5004824;28;20081;-61
2023/06/30 05:20:52;;;;;;;65.97;12.48;;;32.20;26.50;;;;;;5007102;28;20549;-61
2023/06/30 05:23:19;;;;;;;80.22;12.80;;;32.10;26.60;;;;;;5004818;28;20122;-61
2023/06/30 05:25:46;;;;;;;62.10;12.00;;;32.10;26.50;;;;;;5004485;28;20097;-59
2023/06/30 05:28:12;;;;;;;63.15;11.13;;;31.90;27.00;;;;;;5005422;28;20153;-58
2023/06/30 05:30:39;;;;;;;67.40;12.60;;;32.00;26.90;;;;;;5004759;28;20080;-60
2023/06/30 05:33:05;;;;;;;72.47;12.48;;;31.90;27.20;;;;;;5004818;28;20135;-59
2023/06/30 05:35:32;;;;;;;46.45;10.40;;;31.90;27.10;;;;;;5004104;28;20077;-58
2023/06/30 05:37:59;;;;;;;61.70;11.35;;;31.80;27.10;;;;;;5005043;28;20091;-60
2023/06/30 05:40:26;;;;;;;60.40;11.85;;;31.80;27.50;;;;;;5004273;28;20576;-60
2023/06/30 05:42:52;;;;;;;66.90;13.45;;;31.80;27.20;;;;;;5004335;28;20075;-59
2023/06/30 05:45:19;;;;;;;68.93;13.02;;;31.70;26.90;;;;;;5003970;28;20586;-59
2023/06/30 05:47:45;;;;;;;68.72;13.07;;;31.70;26.50;;;;;;5001964;28;20085;-61
2023/06/30 05:50:12;;;;;;;76.88;12.35;;;31.70;26.40;;;;;;5006013;28;20107;-61
2023/06/30 05:52:39;;;;;;;63.85;12.55;;;31.80;27.30;;;;;;5005684;28;20567;-63
2023/06/30 05:55:05;;;;;;;64.65;12.38;;;31.80;26.30;;;;;;5006124;28;20090;-60
2023/06/30 05:57:33;;;;;;;63.72;11.77;;;31.90;26.50;;;;;;5004313;28;20464;-61
2023/06/30 05:59:59;;;;;;;67.80;13.93;;;31.90;26.50;;;;;;5006771;28;20130;-62
2023/06/30 06:02:26;;;;;;;82.40;13.82;;;31.90;27.10;;;;;;5007253;28;20081;-60
2023/06/30 06:04:53;;;;;;;63.83;14.50;;;31.80;27.20;;;;;;5008266;28;20601;-61
2023/06/30 06:07:19;;;;;;;72.68;13.90;;;31.70;27.10;;;;;;5008367;28;20100;-60
2023/06/30 06:09:45;;;;;;;78.93;14.35;;;31.70;27.50;;;;;;5006226;28;20079;-60
2023/06/30 06:12:12;;;;;;;72.20;13.77;;;31.70;27.60;;;;;;5007324;28;20075;-59
2023/06/30 06:14:38;;;;;;;70.03;13.68;;;31.60;27.80;;;;;;5004290;28;20079;-65
2023/06/30 06:17:05;;;;;;;73.68;14.38;;;31.50;28.10;;;;;;5005032;28;20189;-60
2023/06/30 06:19:31;;;;;;;83.65;15.27;;;31.50;27.70;;;;;;5001115;28;20089;-61
2023/06/30 06:21:58;;;;;;;86.30;15.48;;;31.40;28.00;;;;;;5004767;28;20112;-60
2023/06/30 06:24:24;;;;;;;67.03;14.98;;;31.40;28.40;;;;;;5003753;28;20111;-60
2023/06/30 06:26:50;;;;;;;71.20;15.45;;;31.30;28.70;;;;;;5005412;28;20514;-62
2023/06/30 06:29:21;;;;;;;77.28;16.45;;;31.30;28.50;;;;;;5005248;28;20074;-58
2023/06/30 06:31:51;;;;;;;57.35;14.57;;;31.20;28.50;;;;;;5005084;28;20115;-59
2023/06/30 06:34:18;;;;;;;73.18;15.85;;;31.20;28.50;;;;;;5007442;28;20072;-60
2023/06/30 06:36:46;;;;;;;81.10;15.30;;;31.20;28.50;;;;;;5003994;28;20091;-61
2023/06/30 06:39:13;;;;;;;73.40;15.15;;;31.10;29.40;;;;;;5006979;28;20116;-61
2023/06/30 06:41:40;;;;;;;66.40;16.27;;;31.00;29.20;;;;;;5006472;28;20554;-59
2023/06/30 06:44:06;;;;;;;61.67;14.73;;;31.00;29.10;;;;;;5008169;28;20077;-60
2023/06/30 06:46:33;;;;;;;79.85;16.58;;;30.90;29.90;;;;;;5008038;28;20086;-59
2023/06/30 06:48:59;;;;;;;69.15;15.90;;;30.90;30.60;;;;;;5006702;28;20092;-60
2023/06/30 06:51:26;;;;;;;67.22;15.48;;;30.80;30.00;;;;;;5008488;28;20168;-58
2023/06/30 06:53:53;;;;;;;61.22;14.20;;;30.70;30.60;;;;;;5007653;28;20083;-60
2023/06/30 06:56:20;;;;;;;71.95;15.07;;;30.70;29.80;;;;;;5008264;28;20069;-59
2023/06/30 06:58:46;;;;;;;89.05;16.20;;;30.70;30.50;;;;;;5007414;28;20551;-57
2023/06/30 07:01:13;;;;;;;69.05;15.50;;;30.60;30.50;;;;;;5005127;28;20088;-60
2023/06/30 07:03:39;;;;;;;70.97;15.88;;;30.60;30.20;;;;;;5007817;28;20083;-62
2023/06/30 07:06:09;;;;;;;80.82;17.02;;;30.50;30.80;;;;;;5007533;28;20166;-58
2023/06/30 07:08:36;;;;;;;82.43;16.05;;;30.50;30.40;;;;;;5007355;28;20079;-58
2023/06/30 07:11:04;;;;;;;73.88;16.55;;;30.50;29.80;;;;;;5006813;28;20127;-61
2023/06/30 07:13:30;;;;;;;77.28;16.92;;;30.40;29.70;;;;;;5006933;28;20075;-60
2023/06/30 07:15:56;;;;;;;71.68;15.68;;;30.40;29.40;;;;;;5007593;28;20634;-60
2023/06/30 07:18:23;;;;;;;72.10;15.35;;;30.50;29.60;;;;;;5007362;28;20173;-58
2023/06/30 07:20:52;;;;;;;80.63;16.67;;;30.40;29.40;;;;;;5008661;28;20557;-58
2023/06/30 07:23:19;;;;;;;81.15;16.92;;;30.40;29.60;;;;;;5006828;28;20565;-59
2023/06/30 07:25:48;;;;;;;76.53;16.80;;;30.40;29.40;;;;;;5006743;28;20150;-60
2023/06/30 07:28:14;;;;;;;64.30;14.52;;;30.40;29.60;;;;;;5007232;28;20585;-60
2023/06/30 07:30:42;;;;;;;69.90;15.48;;;30.40;29.90;;;;;;5006798;28;20104;-60
2023/06/30 07:33:10;;;;;;;66.05;16.20;;;30.40;30.00;;;;;;5007623;28;20075;-61
2023/06/30 07:35:37;;;;;;;70.13;15.93;;;30.40;30.00;;;;;;5006549;28;20551;-61
2023/06/30 07:38:03;;;;;;;62.20;14.40;;;30.30;29.90;;;;;;5007163;28;20110;-59
2023/06/30 07:40:29;;;;;;;63.80;14.57;;;30.30;29.90;;;;;;5006940;28;20095;-56
2023/06/30 07:42:56;;;;;;;65.38;14.73;;;30.30;30.00;;;;;;5007025;28;20086;-59
2023/06/30 07:45:22;;;;;;;63.45;14.73;;;30.30;30.00;;;;;;5007419;28;20075;-59
2023/06/30 07:47:49;;;;;;;73.68;15.13;;;30.30;30.00;;;;;;5006929;28;20150;-60
2023/06/30 07:50:16;;;;;;;56.53;15.32;;;30.20;30.40;;;;;;5006931;28;20084;-59
2023/06/30 07:52:49;;;;;;;66.97;15.02;;;30.20;30.70;;;;;;5006938;28;20089;-61
2023/06/30 07:55:17;;;;;;;78.13;14.35;;;30.10;30.40;;;;;;5006671;28;20474;-61
2023/06/30 07:57:45;;;;;;;60.75;13.68;;;30.00;30.20;;;;;;5006146;28;20526;-57
2023/06/30 08:00:15;;;;;;;54.08;13.27;;;30.10;30.80;;;;;;5004423;28;20586;-61
2023/06/30 08:02:42;;;;;;;49.50;12.93;;;30.00;30.40;;;;;;5005766;28;20089;-60
2023/06/30 08:05:09;;;;;;;65.05;14.02;;;30.10;30.60;;;;;;5006348;28;20073;-59
2023/06/30 08:07:36;;;;;;;59.75;13.90;;;30.00;31.60;;;;;;5005444;28;20075;-58
2023/06/30 08:10:03;;;;;;;51.70;15.25;;;30.00;31.80;;;;;;5007196;28;20079;-60
2023/06/30 08:12:30;;;;;;;71.20;15.20;;;29.90;32.00;;;;;;5006814;28;20826;-55
2023/06/30 08:14:56;;;;;;;48.85;18.52;;;29.80;32.70;;;;;;5006378;28;20088;-59
2023/06/30 08:17:22;;;;;;;65.43;27.85;;;29.80;33.00;;;;;;5006598;28;20076;-60
2023/06/30 08:19:49;;;;;;;73.13;27.60;;;29.70;33.20;;;;;;5005646;28;20098;-60
2023/06/30 08:22:20;;;;;;;79.28;28.00;;;29.70;33.20;;;;;;5006354;28;20476;-60
2023/06/30 08:24:46;;;;;;;67.18;26.88;;;29.60;34.30;;;;;;5006351;28;20162;-59
2023/06/30 08:27:13;;;;;;;59.58;24.63;;;29.60;34.50;;;;;;5006113;28;20076;-61
2023/06/30 08:29:40;;;;;;;37.55;11.90;;;29.50;34.70;;;;;;5005451;28;20092;-60
2023/06/30 08:32:07;;;;;;;39.90;11.63;;;29.50;34.50;;;;;;5006288;28;20100;-61
2023/06/30 08:34:33;;;;;;;49.92;11.88;;;29.50;36.00;;;;;;5006989;28;20086;-60
2023/06/30 08:36:59;;;;;;;52.50;11.57;;;29.40;34.70;;;;;;5005929;28;20075;-59
2023/06/30 08:39:31;;;;;;;46.10;11.60;;;29.40;34.50;;;;;;5004594;28;20186;-61
2023/06/30 08:42:00;;;;;;;39.17;9.65;;;29.40;34.30;;;;;;5005600;28;20103;-60
2023/06/30 08:44:27;;;;;;;44.22;10.20;;;29.40;34.50;;;;;;5005931;28;20073;-59
2023/06/30 08:46:54;;;;;;;36.13;8.27;;;29.40;34.20;;;;;;5005847;28;20081;-61
2023/06/30 08:49:23;;;;;;;32.63;8.63;;;29.50;34.30;;;;;;5005610;28;20102;-59
2023/06/30 08:51:56;;;;;;;36.50;9.68;;;29.40;35.10;;;;;;5004201;28;20730;-61
2023/06/30 08:54:32;;;;;;;31.60;8.77;;;29.40;35.10;;;;;;5004969;28;20091;-60
2023/06/30 08:57:01;;;;;;;29.17;8.93;;;29.40;34.70;;;;;;5003184;28;20089;-60
2023/06/30 08:59:28;;;;;;;28.42;9.18;;;29.40;35.80;;;;;;5005285;28;20116;-59
2023/06/30 09:01:57;;;;;;;42.40;10.18;;;29.40;35.40;;;;;;5004340;28;20084;-55
2023/06/30 09:04:24;;;;;;;43.08;10.05;;;29.30;35.70;;;;;;5004517;28;20091;-59
2023/06/30 09:06:52;;;;;;;39.35;10.00;;;29.30;35.70;;;;;;5005260;28;20207;-60
2023/06/30 09:09:54;;;;;;;35.35;9.18;;;29.30;37.30;;;;;;5004396;28;20083;-61
2023/06/30 09:12:20;;;;;;;42.15;10.00;;;29.20;36.70;;;;;;5005235;28;20646;-61
2023/06/30 09:14:47;;;;;;;41.63;9.45;;;29.20;36.40;;;;;;5003653;28;20100;-62
2023/06/30 09:17:15;;;;;;;53.88;9.32;;;29.20;36.50;;;;;;5003001;28;20175;-61
2023/06/30 09:19:41;;;;;;;34.63;10.82;;;29.20;36.20;;;;;;5003905;28;20112;-61
2023/06/30 09:22:09;;;;;;;35.10;9.32;;;29.10;36.50;;;;;;5004168;28;20100;-59
2023/06/30 09:24:35;;;;;;;30.77;9.20;;;29.10;36.80;;;;;;5005119;28;20686;-60
2023/06/30 09:27:01;;;;;;;41.65;10.23;;;29.00;37.00;;;;;;5006631;28;20617;-61
2023/06/30 09:29:33;;;;;;;34.88;10.80;;;29.00;37.00;;;;;;5006460;28;20083;-59
2023/06/30 09:32:03;;;;;;;47.15;12.88;;;29.00;36.70;;;;;;5004545;28;20172;-61
2023/06/30 09:34:30;;;;;;;37.60;11.38;;;29.00;36.60;;;;;;5005809;28;20092;-60
2023/06/30 09:36:56;;;;;;;41.42;12.15;;;29.00;38.10;;;;;;5004846;28;20108;-59
2023/06/30 09:39:23;;;;;;;36.97;12.45;;;28.90;38.00;;;;;;5004461;28;20080;-60
2023/06/30 09:41:51;;;;;;;63.45;14.30;;;28.90;38.20;;;;;;5005005;28;20168;-61
2023/06/30 09:44:22;;;;;;;56.22;14.20;;;28.80;37.00;;;;;;5003402;28;20085;-60
2023/06/30 09:46:53;;;;;;;48.30;14.65;;;28.80;37.60;;;;;;5005181;28;20084;-61
2023/06/30 09:49:28;;;;;;;59.40;13.98;;;28.80;37.00;;;;;;5003604;28;20084;-61
2023/06/30 09:51:56;;;;;;;44.97;13.07;;;28.80;36.60;;;;;;5004282;28;20093;-58
2023/06/30 09:54:24;;;;;;;59.13;14.57;;;28.80;38.30;;;;;;5004941;28;20834;-61
2023/06/30 09:57:06;;;;;;;49.58;14.75;;;28.80;37.10;;;;;;5004850;28;20091;-60
2023/06/30 09:59:33;;;;;;;56.70;15.85;;;28.80;36.40;;;;;;5005044;28;20085;-61
2023/06/30 10:02:00;;;;;;;52.33;15.07;;;28.80;37.20;;;;;;5004150;28;20088;-62
2023/06/30 10:04:29;;;;;;;58.83;14.15;;;28.80;37.60;;;;;;5005756;28;20093;-60
2023/06/30 10:06:56;;;;;;;57.95;15.40;;;28.70;37.40;;;;;;5004367;28;20166;-60
2023/06/30 10:09:24;;;;;;;78.05;16.23;;;28.60;38.60;;;;;;5006288;28;20137;-61
2023/06/30 10:11:53;;;;;;;74.63;16.17;;;28.40;38.00;;;;;;5004784;28;20085;-60
2023/06/30 10:14:28;;;;;;;61.17;15.73;;;28.40;38.10;;;;;;4999030;28;20099;-61
2023/06/30 10:17:00;;;;;;;60.10;14.67;;;28.50;39.30;;;;;;5003781;28;20636;-60
2023/06/30 10:19:28;;;;;;;67.63;15.65;;;28.40;38.10;;;;;;5003723;28;20155;-62
2023/06/30 10:21:56;;;;;;;69.97;17.25;;;28.40;38.90;;;;;;5004235;28;20089;-60
2023/06/30 10:24:37;;;;;;;81.38;16.23;;;28.30;38.10;;;;;;5005191;28;20084;-61
2023/06/30 10:27:07;;;;;;;75.68;17.63;;;28.30;38.00;;;;;;5003784;28;20532;-62
2023/06/30 10:29:34;;;;;;;76.82;17.65;;;28.20;38.50;;;;;;5004796;28;20099;-60
2023/06/30 10:32:01;;;;;;;98.20;18.45;;;28.20;37.60;;;;;;5004730;28;20080;-60
2023/06/30 10:34:32;;;;;;;73.15;17.63;;;28.20;37.60;;;;;;5006827;28;20080;-60
2023/06/30 10:36:59;;;;;;;81.28;18.60;;;28.20;37.30;;;;;;5008480;28;21362;-59
2023/06/30 10:39:27;;;;;;;83.53;19.55;;;28.20;37.60;;;;;;5008713;28;20085;-58
2023/06/30 10:41:57;;;;;;;82.35;17.63;;;28.10;37.40;;;;;;5007874;28;20176;-62
2023/06/30 10:44:43;;;;;;;87.35;19.35;;;28.00;37.50;;;;;;5008040;28;20079;-62
2023/06/30 10:47:10;;;;;;;82.55;18.38;;;28.00;37.40;;;;;;5007304;28;21084;-59
2023/06/30 10:49:39;;;;;;;89.75;21.02;;;27.90;38.50;;;;;;5006773;28;20123;-60
2023/06/30 10:52:23;;;;;;;105.18;22.05;;;27.80;37.30;;;;;;5009568;28;20092;-62
2023/06/30 10:54:50;;;;;;;96.63;23.02;;;27.80;36.80;;;;;;5007363;28;20081;-59
2023/06/30 10:57:29;;;;;;;121.63;21.63;;;27.70;36.10;;;;;;5008016;28;20073;-61
2023/06/30 11:00:12;;;;;;;128.77;23.27;;;27.80;36.40;;;;;;5006778;28;20156;-58
2023/06/30 11:02:48;;;;;;;107.68;21.85;;;27.70;37.90;;;;;;5007082;28;20139;-63
2023/06/30 11:05:23;;;;;;;103.55;22.70;;;27.70;38.30;;;;;;5008645;28;20085;-61
2023/06/30 11:07:54;;;;;;;104.72;23.17;;;27.80;37.40;;;;;;5008495;28;20084;-61
2023/06/30 11:10:32;;;;;;;102.28;20.63;;;27.80;38.80;;;;;;5005321;28;20089;-59
2023/06/30 11:13:01;;;;;;;91.60;22.00;;;27.70;39.00;;;;;;5007208;28;20096;-65
2023/06/30 11:15:36;;;;;;;97.13;22.63;;;27.60;38.40;;;;;;5008001;28;20124;-61
2023/06/30 11:18:06;;;;;;;335.33;29.63;;;27.60;37.80;;;;;;5006446;28;20452;-60
2023/06/30 11:20:33;;;;;;;107.45;21.52;;;27.60;36.80;;;;;;5007144;28;20141;-61
2023/06/30 11:23:05;;;;;;;99.32;24.17;;;27.60;36.00;;;;;;5008083;28;20493;-59
2023/06/30 11:25:34;;;;;;;81.63;20.88;;;27.60;35.60;;;;;;5008008;28;20081;-61
2023/06/30 11:28:04;;;;;;;77.97;20.77;;;27.60;33.90;;;;;;5008440;28;20073;-61
2023/06/30 11:30:38;;;;;;;89.38;20.67;;;27.60;33.10;;;;;;5006984;28;20093;-60
2023/06/30 11:33:06;;;;;;;77.32;19.63;;;27.60;32.50;;;;;;5007543;28;20167;-58
2023/06/30 11:35:34;;;;;;;71.53;20.10;;;27.70;32.30;;;;;;5008195;28;20095;-58
2023/06/30 11:38:01;;;;;;;67.75;20.98;;;27.70;31.80;;;;;;5008037;28;20092;-61
2023/06/30 11:40:27;;;;;;;73.53;19.85;;;27.70;31.60;;;;;;5006394;28;20108;-59
2023/06/30 11:42:54;;;;;;;60.10;20.33;;;27.70;32.10;;;;;;5006428;28;20077;-61
2023/06/30 11:45:26;;;;;;;74.68;20.58;;;27.70;32.00;;;;;;5005873;28;20210;-59
2023/06/30 11:47:54;;;;;;;78.75;20.63;;;27.60;31.80;;;;;;5006790;28;20568;-61
2023/06/30 11:50:21;;;;;;;66.22;18.75;;;27.60;32.10;;;;;;5005410;28;20569;-60
2023/06/30 11:52:48;;;;;;;65.43;16.13;;;27.50;32.50;;;;;;5007203;28;20072;-60
2023/06/30 11:55:16;;;;;;;52.25;15.02;;;27.50;33.30;;;;;;5006643;28;20084;-58
2023/06/30 11:57:46;;;;;;;53.22;13.73;;;27.50;33.70;;;;;;5006610;28;20180;-61
2023/06/30 12:00:17;;;;;;;59.63;13.50;;;27.50;34.10;;;;;;5006424;28;20628;-60
2023/06/30 12:02:45;;;;;;;54.85;13.77;;;27.50;34.70;;;;;;5005845;28;20124;-61
2023/06/30 12:05:23;;;;;;;55.45;12.75;;;27.50;34.90;;;;;;5006443;28;20492;-61
2023/06/30 12:07:51;;;;;;;46.47;12.60;;;27.50;35.20;;;;;;5006679;28;20147;-61
2023/06/30 12:10:18;;;;;;;42.92;12.98;;;27.40;35.40;;;;;;5007056;28;20092;-61
2023/06/30 12:12:56;;;;;;;50.38;12.70;;;27.40;35.60;;;;;;5005770;28;20084;-61
2023/06/30 12:15:24;;;;;;;47.97;12.38;;;27.40;35.70;;;;;;5006275;28;20080;-60
2023/06/30 12:17:54;;;;;;;49.33;12.13;;;27.30;36.00;;;;;;5001165;28;20144;-62
2023/06/30 12:20:35;;;;;;;53.47;11.68;;;27.30;36.30;;;;;;5004953;28;20104;-59
2023/06/30 12:23:03;;;;;;;44.35;10.73;;;27.30;36.80;;;;;;5005815;28;20127;-62
2023/06/30 12:25:34;;;;;;;54.65;12.20;;;27.30;37.90;;;;;;5006423;28;20556;-60
2023/06/30 12:28:09;;;;;;;47.42;11.25;;;27.20;39.30;;;;;;5005991;28;20097;-62
2023/06/30 12:30:36;;;;;;;40.03;11.15;;;27.20;38.30;;;;;;5006293;28;20574;-62
2023/06/30 12:33:03;;;;;;;46.90;10.82;;;27.20;38.90;;;;;;5006209;28;20146;-61
2023/06/30 12:35:38;;;;;;;40.65;11.77;;;27.10;39.20;;;;;;5004874;28;20081;-61